sensor_id;sensor_type;location;lat;lon;timestamp;temperature;humidity
27559;DHT22;15002;52.028;5.670;2023-06-22T00:01:27;22.60;99.90
27559;DHT22;15002;52.028;5.670;2023-06-22T00:03:53;22.80;99.90
27559;DHT22;15002;52.028;5.670;2023-06-22T00:06:19;22.70;99.90
27559;DHT22;15002;52.028;5.670;2023-06-22T00:08:45;22.60;99.90
27559;DHT22;15002;52.028;5.670;2023-06-22T00:11:10;22.30;99.90
27559;DHT22;15002;52.028;5.670;2023-06-22T00:13:37;22.30;99.90
27559;DHT22;15002;52.028;5.670;2023-06-22T00:16:02;22.40;99.90
27559;DHT22;15002;52.028;5.670;2023-06-22T00:18:28;22.40;99.90
27559;DHT22;15002;52.028;5.670;2023-06-22T00:20:55;22.30;99.90
27559;DHT22;15002;52.028;5.670;2023-06-22T00:23:23;22.40;99.90
27559;DHT22;15002;52.028;5.670;2023-06-22T00:25:49;22.50;99.90
27559;DHT22;15002;52.028;5.670;2023-06-22T00:28:15;22.30;99.90
27559;DHT22;15002;52.028;5.670;2023-06-22T00:30:40;22.30;99.90
27559;DHT22;15002;52.028;5.670;2023-06-22T00:33:06;22.30;99.90
27559;DHT22;15002;52.028;5.670;2023-06-22T00:35:33;22.20;99.90
27559;DHT22;15002;52.028;5.670;2023-06-22T00:38:00;22.10;99.90
27559;DHT22;15002;52.028;5.670;2023-06-22T00:40:30;21.80;99.90
27559;DHT22;15002;52.028;5.670;2023-06-22T00:42:56;21.50;99.90
27559;DHT22;15002;52.028;5.670;2023-06-22T00:45:26;21.70;99.90
27559;DHT22;15002;52.028;5.670;2023-06-22T00:48:01;21.50;99.90
27559;DHT22;15002;52.028;5.670;2023-06-22T00:50:30;21.30;99.90
27559;DHT22;15002;52.028;5.670;2023-06-22T00:53:05;21.30;99.90
27559;DHT22;15002;52.028;5.670;2023-06-22T00:55:44;21.40;99.90
27559;DHT22;15002;52.028;5.670;2023-06-22T00:58:11;21.80;99.90
27559;DHT22;15002;52.028;5.670;2023-06-22T01:00:38;21.70;99.90
27559;DHT22;15002;52.028;5.670;2023-06-22T01:03:04;21.70;99.90
27559;DHT22;15002;52.028;5.670;2023-06-22T01:05:34;21.50;99.90
27559;DHT22;15002;52.028;5.670;2023-06-22T01:11:09;21.40;99.90
27559;DHT22;15002;52.028;5.670;2023-06-22T01:13:46;21.50;99.90
27559;DHT22;15002;52.028;5.670;2023-06-22T01:16:40;21.60;99.90
27559;DHT22;15002;52.028;5.670;2023-06-22T01:19:39;21.60;99.90
27559;DHT22;15002;52.028;5.670;2023-06-22T01:22:10;21.30;99.90
27559;DHT22;15002;52.028;5.670;2023-06-22T01:25:21;21.10;99.90
27559;DHT22;15002;52.028;5.670;2023-06-22T01:30:32;21.30;99.90
27559;DHT22;15002;52.028;5.670;2023-06-22T01:33:05;21.20;99.90
27559;DHT22;15002;52.028;5.670;2023-06-22T01:35:31;21.10;99.90
27559;DHT22;15002;52.028;5.670;2023-06-22T01:37:57;21.20;99.90
27559;DHT22;15002;52.028;5.670;2023-06-22T01:40:23;21.10;99.90
27559;DHT22;15002;52.028;5.670;2023-06-22T01:42:50;21.20;99.90
27559;DHT22;15002;52.028;5.670;2023-06-22T01:45:16;21.00;99.90
27559;DHT22;15002;52.028;5.670;2023-06-22T01:47:42;21.10;99.90
27559;DHT22;15002;52.028;5.670;2023-06-22T01:50:09;20.90;99.90
27559;DHT22;15002;52.028;5.670;2023-06-22T01:52:34;20.80;99.90
27559;DHT22;15002;52.028;5.670;2023-06-22T01:55:00;20.80;99.90
27559;DHT22;15002;52.028;5.670;2023-06-22T01:57:26;21.20;99.90
27559;DHT22;15002;52.028;5.670;2023-06-22T02:00:08;21.00;99.90
27559;DHT22;15002;52.028;5.670;2023-06-22T02:02:52;21.30;99.90
27559;DHT22;15002;52.028;5.670;2023-06-22T02:05:19;21.20;99.90
27559;DHT22;15002;52.028;5.670;2023-06-22T02:08:10;21.10;99.90
27559;DHT22;15002;52.028;5.670;2023-06-22T02:10:38;21.10;99.90
27559;DHT22;15002;52.028;5.670;2023-06-22T02:13:07;21.20;99.90
27559;DHT22;15002;52.028;5.670;2023-06-22T02:15:34;21.10;99.90
27559;DHT22;15002;52.028;5.670;2023-06-22T02:18:00;20.90;99.90
27559;DHT22;15002;52.028;5.670;2023-06-22T02:20:26;21.00;99.90
27559;DHT22;15002;52.028;5.670;2023-06-22T02:22:52;21.10;99.90
27559;DHT22;15002;52.028;5.670;2023-06-22T02:25:17;21.00;99.90
27559;DHT22;15002;52.028;5.670;2023-06-22T02:27:44;20.80;99.90
27559;DHT22;15002;52.028;5.670;2023-06-22T02:30:10;21.10;99.90
27559;DHT22;15002;52.028;5.670;2023-06-22T02:32:36;21.10;99.90
27559;DHT22;15002;52.028;5.670;2023-06-22T02:35:02;21.00;99.90
27559;DHT22;15002;52.028;5.670;2023-06-22T02:37:32;21.10;99.90
27559;DHT22;15002;52.028;5.670;2023-06-22T02:39:57;21.10;99.90
27559;DHT22;15002;52.028;5.670;2023-06-22T02:42:23;21.10;99.90
27559;DHT22;15002;52.028;5.670;2023-06-22T02:44:49;21.20;99.90
27559;DHT22;15002;52.028;5.670;2023-06-22T02:47:15;21.30;99.90
27559;DHT22;15002;52.028;5.670;2023-06-22T02:49:41;21.30;99.90
27559;DHT22;15002;52.028;5.670;2023-06-22T02:52:07;21.40;99.90
27559;DHT22;15002;52.028;5.670;2023-06-22T02:54:32;21.50;99.90
27559;DHT22;15002;52.028;5.670;2023-06-22T02:56:59;21.60;99.90
27559;DHT22;15002;52.028;5.670;2023-06-22T02:59:28;21.40;99.90
27559;DHT22;15002;52.028;5.670;2023-06-22T03:01:54;21.40;99.90
27559;DHT22;15002;52.028;5.670;2023-06-22T03:04:19;21.50;99.90
27559;DHT22;15002;52.028;5.670;2023-06-22T03:06:45;21.40;99.90
27559;DHT22;15002;52.028;5.670;2023-06-22T03:09:16;21.30;99.90
27559;DHT22;15002;52.028;5.670;2023-06-22T03:11:42;21.20;99.90
27559;DHT22;15002;52.028;5.670;2023-06-22T03:14:07;21.40;99.90
27559;DHT22;15002;52.028;5.670;2023-06-22T03:16:33;21.20;99.90
27559;DHT22;15002;52.028;5.670;2023-06-22T03:18:59;21.20;99.90
27559;DHT22;15002;52.028;5.670;2023-06-22T03:21:27;21.30;99.90
27559;DHT22;15002;52.028;5.670;2023-06-22T03:23:53;21.10;99.90
27559;DHT22;15002;52.028;5.670;2023-06-22T03:26:19;21.00;99.90
27559;DHT22;15002;52.028;5.670;2023-06-22T03:28:45;21.10;99.90
27559;DHT22;15002;52.028;5.670;2023-06-22T03:31:11;21.10;99.90
27559;DHT22;15002;52.028;5.670;2023-06-22T03:33:36;20.80;99.90
27559;DHT22;15002;52.028;5.670;2023-06-22T03:36:02;20.80;99.90
27559;DHT22;15002;52.028;5.670;2023-06-22T03:38:28;20.80;99.90
27559;DHT22;15002;52.028;5.670;2023-06-22T03:40:53;20.60;99.90
27559;DHT22;15002;52.028;5.670;2023-06-22T03:43:19;20.40;99.90
27559;DHT22;15002;52.028;5.670;2023-06-22T03:45:44;20.50;99.90
27559;DHT22;15002;52.028;5.670;2023-06-22T03:48:11;20.50;99.90
27559;DHT22;15002;52.028;5.670;2023-06-22T03:50:37;20.60;99.90
27559;DHT22;15002;52.028;5.670;2023-06-22T03:53:03;20.40;99.90
27559;DHT22;15002;52.028;5.670;2023-06-22T03:55:28;20.40;99.90
27559;DHT22;15002;52.028;5.670;2023-06-22T03:57:54;20.30;99.90
27559;DHT22;15002;52.028;5.670;2023-06-22T04:00:25;20.40;99.90
27559;DHT22;15002;52.028;5.670;2023-06-22T04:02:51;20.50;99.90
27559;DHT22;15002;52.028;5.670;2023-06-22T04:05:16;20.40;99.90
27559;DHT22;15002;52.028;5.670;2023-06-22T04:07:45;20.30;99.90
27559;DHT22;15002;52.028;5.670;2023-06-22T04:10:10;20.60;99.90
27559;DHT22;15002;52.028;5.670;2023-06-22T04:12:36;20.90;99.90
27559;DHT22;15002;52.028;5.670;2023-06-22T04:15:02;20.70;99.90
27559;DHT22;15002;52.028;5.670;2023-06-22T04:17:27;20.50;99.90
27559;DHT22;15002;52.028;5.670;2023-06-22T04:19:53;20.50;99.90
27559;DHT22;15002;52.028;5.670;2023-06-22T04:22:18;20.30;99.90
27559;DHT22;15002;52.028;5.670;2023-06-22T04:24:44;20.20;99.90
27559;DHT22;15002;52.028;5.670;2023-06-22T04:27:10;20.60;99.90
27559;DHT22;15002;52.028;5.670;2023-06-22T04:29:37;20.90;99.90
27559;DHT22;15002;52.028;5.670;2023-06-22T04:32:03;21.20;99.90
27559;DHT22;15002;52.028;5.670;2023-06-22T04:34:31;21.50;99.90
27559;DHT22;15002;52.028;5.670;2023-06-22T04:36:57;21.70;99.90
27559;DHT22;15002;52.028;5.670;2023-06-22T04:39:22;21.80;99.90
27559;DHT22;15002;52.028;5.670;2023-06-22T04:41:49;21.90;99.90
27559;DHT22;15002;52.028;5.670;2023-06-22T04:44:17;22.20;99.90
27559;DHT22;15002;52.028;5.670;2023-06-22T04:46:54;22.30;99.90
27559;DHT22;15002;52.028;5.670;2023-06-22T04:49:25;22.50;99.90
27559;DHT22;15002;52.028;5.670;2023-06-22T04:52:01;22.60;99.90
27559;DHT22;15002;52.028;5.670;2023-06-22T04:54:27;22.70;99.90
27559;DHT22;15002;52.028;5.670;2023-06-22T04:56:53;22.70;99.90
27559;DHT22;15002;52.028;5.670;2023-06-22T04:59:28;22.70;99.90
27559;DHT22;15002;52.028;5.670;2023-06-22T05:04:22;22.10;99.90
27559;DHT22;15002;52.028;5.670;2023-06-22T05:06:49;22.10;99.90
27559;DHT22;15002;52.028;5.670;2023-06-22T05:09:15;21.90;99.90
27559;DHT22;15002;52.028;5.670;2023-06-22T05:11:43;22.00;99.90
27559;DHT22;15002;52.028;5.670;2023-06-22T05:14:08;22.00;99.90
27559;DHT22;15002;52.028;5.670;2023-06-22T05:16:34;22.20;99.90
27559;DHT22;15002;52.028;5.670;2023-06-22T05:19:00;22.40;99.90
27559;DHT22;15002;52.028;5.670;2023-06-22T05:21:30;22.30;99.90
27559;DHT22;15002;52.028;5.670;2023-06-22T05:23:56;22.70;99.90
27559;DHT22;15002;52.028;5.670;2023-06-22T05:26:26;22.60;99.90
27559;DHT22;15002;52.028;5.670;2023-06-22T05:28:52;22.70;99.90
27559;DHT22;15002;52.028;5.670;2023-06-22T05:31:19;23.00;99.90
27559;DHT22;15002;52.028;5.670;2023-06-22T05:33:49;23.00;99.90
27559;DHT22;15002;52.028;5.670;2023-06-22T05:36:15;23.00;99.90
27559;DHT22;15002;52.028;5.670;2023-06-22T05:38:41;23.20;99.90
27559;DHT22;15002;52.028;5.670;2023-06-22T05:41:07;23.40;99.90
27559;DHT22;15002;52.028;5.670;2023-06-22T05:43:33;23.50;99.90
27559;DHT22;15002;52.028;5.670;2023-06-22T05:46:01;23.50;99.90
27559;DHT22;15002;52.028;5.670;2023-06-22T05:48:27;23.60;99.90
27559;DHT22;15002;52.028;5.670;2023-06-22T05:50:53;23.80;99.90
27559;DHT22;15002;52.028;5.670;2023-06-22T05:53:19;23.30;99.90
27559;DHT22;15002;52.028;5.670;2023-06-22T05:55:44;23.20;99.90
27559;DHT22;15002;52.028;5.670;2023-06-22T05:58:10;23.20;99.90
27559;DHT22;15002;52.028;5.670;2023-06-22T06:00:36;23.20;99.90
27559;DHT22;15002;52.028;5.670;2023-06-22T06:03:02;23.30;99.90
27559;DHT22;15002;52.028;5.670;2023-06-22T06:05:33;23.30;99.90
27559;DHT22;15002;52.028;5.670;2023-06-22T06:08:03;23.30;99.90
27559;DHT22;15002;52.028;5.670;2023-06-22T06:10:30;23.40;99.90
27559;DHT22;15002;52.028;5.670;2023-06-22T06:12:56;23.20;99.90
27559;DHT22;15002;52.028;5.670;2023-06-22T06:15:22;23.70;99.90
27559;DHT22;15002;52.028;5.670;2023-06-22T06:17:52;24.00;99.90
27559;DHT22;15002;52.028;5.670;2023-06-22T06:20:19;23.90;99.90
27559;DHT22;15002;52.028;5.670;2023-06-22T06:22:45;24.00;99.90
27559;DHT22;15002;52.028;5.670;2023-06-22T06:25:11;24.00;99.90
27559;DHT22;15002;52.028;5.670;2023-06-22T06:27:45;24.10;99.90
27559;DHT22;15002;52.028;5.670;2023-06-22T06:30:12;24.10;99.90
27559;DHT22;15002;52.028;5.670;2023-06-22T06:32:38;24.20;99.90
27559;DHT22;15002;52.028;5.670;2023-06-22T06:35:09;24.10;99.90
27559;DHT22;15002;52.028;5.670;2023-06-22T06:37:43;24.40;99.90
27559;DHT22;15002;52.028;5.670;2023-06-22T06:40:10;24.70;99.90
27559;DHT22;15002;52.028;5.670;2023-06-22T06:42:40;25.40;99.90
27559;DHT22;15002;52.028;5.670;2023-06-22T06:47:36;26.90;99.90
27559;DHT22;15002;52.028;5.670;2023-06-22T06:50:03;26.80;99.90
27559;DHT22;15002;52.028;5.670;2023-06-22T06:52:29;26.70;99.90
27559;DHT22;15002;52.028;5.670;2023-06-22T06:54:55;26.90;99.90
27559;DHT22;15002;52.028;5.670;2023-06-22T06:57:20;27.20;99.70
27559;DHT22;15002;52.028;5.670;2023-06-22T06:59:48;27.60;99.00
27559;DHT22;15002;52.028;5.670;2023-06-22T07:02:14;27.80;97.60
27559;DHT22;15002;52.028;5.670;2023-06-22T07:04:40;27.20;98.50
27559;DHT22;15002;52.028;5.670;2023-06-22T07:07:05;27.10;98.90
27559;DHT22;15002;52.028;5.670;2023-06-22T07:09:31;27.20;98.90
27559;DHT22;15002;52.028;5.670;2023-06-22T07:11:57;27.30;98.20
27559;DHT22;15002;52.028;5.670;2023-06-22T07:14:22;27.50;97.20
27559;DHT22;15002;52.028;5.670;2023-06-22T07:16:48;28.40;95.90
27559;DHT22;15002;52.028;5.670;2023-06-22T07:19:14;29.00;94.60
27559;DHT22;15002;52.028;5.670;2023-06-22T07:21:40;29.60;92.70
27559;DHT22;15002;52.028;5.670;2023-06-22T07:24:06;29.60;91.30
27559;DHT22;15002;52.028;5.670;2023-06-22T07:26:32;29.10;92.30
27559;DHT22;15002;52.028;5.670;2023-06-22T07:28:58;28.60;93.00
27559;DHT22;15002;52.028;5.670;2023-06-22T07:31:27;29.30;91.90
27559;DHT22;15002;52.028;5.670;2023-06-22T07:33:52;29.60;92.10
27559;DHT22;15002;52.028;5.670;2023-06-22T07:36:18;29.80;91.20
27559;DHT22;15002;52.028;5.670;2023-06-22T07:38:44;29.90;91.40
27559;DHT22;15002;52.028;5.670;2023-06-22T07:41:10;30.60;90.30
27559;DHT22;15002;52.028;5.670;2023-06-22T07:43:35;30.40;88.70
27559;DHT22;15002;52.028;5.670;2023-06-22T07:46:05;30.40;88.90
27559;DHT22;15002;52.028;5.670;2023-06-22T07:48:31;30.70;89.50
27559;DHT22;15002;52.028;5.670;2023-06-22T07:50:57;31.10;86.30
27559;DHT22;15002;52.028;5.670;2023-06-22T07:53:23;30.90;85.80
27559;DHT22;15002;52.028;5.670;2023-06-22T07:55:49;30.30;86.00
27559;DHT22;15002;52.028;5.670;2023-06-22T07:58:15;29.50;88.50
27559;DHT22;15002;52.028;5.670;2023-06-22T08:00:41;29.40;88.30
27559;DHT22;15002;52.028;5.670;2023-06-22T08:03:07;28.90;90.60
27559;DHT22;15002;52.028;5.670;2023-06-22T08:05:32;29.10;90.20
27559;DHT22;15002;52.028;5.670;2023-06-22T08:07:58;29.00;90.30
27559;DHT22;15002;52.028;5.670;2023-06-22T08:10:24;28.70;90.30
27559;DHT22;15002;52.028;5.670;2023-06-22T08:12:51;28.60;90.70
27559;DHT22;15002;52.028;5.670;2023-06-22T08:15:17;28.00;91.90
27559;DHT22;15002;52.028;5.670;2023-06-22T08:17:44;27.60;92.40
27559;DHT22;15002;52.028;5.670;2023-06-22T08:20:11;27.20;93.60
27559;DHT22;15002;52.028;5.670;2023-06-22T08:22:38;27.30;94.00
27559;DHT22;15002;52.028;5.670;2023-06-22T08:25:04;27.30;93.80
27559;DHT22;15002;52.028;5.670;2023-06-22T08:27:30;27.30;94.50
27559;DHT22;15002;52.028;5.670;2023-06-22T08:29:59;26.90;94.80
27559;DHT22;15002;52.028;5.670;2023-06-22T08:32:29;27.10;94.90
27559;DHT22;15002;52.028;5.670;2023-06-22T08:34:56;27.00;94.40
27559;DHT22;15002;52.028;5.670;2023-06-22T08:37:22;27.00;94.80
27559;DHT22;15002;52.028;5.670;2023-06-22T08:39:56;26.80;94.70
27559;DHT22;15002;52.028;5.670;2023-06-22T08:42:22;26.80;95.00
27559;DHT22;15002;52.028;5.670;2023-06-22T08:44:49;27.10;94.60
27559;DHT22;15002;52.028;5.670;2023-06-22T08:47:15;27.50;94.30
27559;DHT22;15002;52.028;5.670;2023-06-22T08:49:41;27.20;94.80
27559;DHT22;15002;52.028;5.670;2023-06-22T08:52:07;27.30;94.60
27559;DHT22;15002;52.028;5.670;2023-06-22T08:54:33;27.60;93.00
27559;DHT22;15002;52.028;5.670;2023-06-22T08:57:00;27.10;93.20
27559;DHT22;15002;52.028;5.670;2023-06-22T08:59:26;27.30;93.20
27559;DHT22;15002;52.028;5.670;2023-06-22T09:01:52;27.30;93.40
27559;DHT22;15002;52.028;5.670;2023-06-22T09:04:17;27.30;93.00
27559;DHT22;15002;52.028;5.670;2023-06-22T09:06:43;27.40;92.20
27559;DHT22;15002;52.028;5.670;2023-06-22T09:09:15;27.80;91.10
27559;DHT22;15002;52.028;5.670;2023-06-22T09:11:41;28.00;90.90
27559;DHT22;15002;52.028;5.670;2023-06-22T09:14:07;28.00;90.80
27559;DHT22;15002;52.028;5.670;2023-06-22T09:16:33;27.70;91.10
27559;DHT22;15002;52.028;5.670;2023-06-22T09:18:59;27.70;90.80
27559;DHT22;15002;52.028;5.670;2023-06-22T09:21:25;27.90;90.20
27559;DHT22;15002;52.028;5.670;2023-06-22T09:23:51;28.00;89.40
27559;DHT22;15002;52.028;5.670;2023-06-22T09:26:20;28.40;88.00
27559;DHT22;15002;52.028;5.670;2023-06-22T09:28:46;28.40;89.40
27559;DHT22;15002;52.028;5.670;2023-06-22T09:31:12;28.60;89.10
27559;DHT22;15002;52.028;5.670;2023-06-22T09:33:40;29.20;88.30
27559;DHT22;15002;52.028;5.670;2023-06-22T09:36:06;29.20;86.30
27559;DHT22;15002;52.028;5.670;2023-06-22T09:38:41;28.70;86.10
27559;DHT22;15002;52.028;5.670;2023-06-22T09:41:07;28.40;86.80
27559;DHT22;15002;52.028;5.670;2023-06-22T09:43:33;28.40;86.00
27559;DHT22;15002;52.028;5.670;2023-06-22T09:46:01;28.40;84.40
27559;DHT22;15002;52.028;5.670;2023-06-22T09:48:28;27.80;86.90
27559;DHT22;15002;52.028;5.670;2023-06-22T09:50:55;27.50;88.00
27559;DHT22;15002;52.028;5.670;2023-06-22T09:53:20;27.40;88.60
27559;DHT22;15002;52.028;5.670;2023-06-22T09:55:46;27.60;87.10
27559;DHT22;15002;52.028;5.670;2023-06-22T09:58:12;28.00;86.40
27559;DHT22;15002;52.028;5.670;2023-06-22T10:00:37;28.30;86.30
27559;DHT22;15002;52.028;5.670;2023-06-22T10:03:03;28.10;87.10
27559;DHT22;15002;52.028;5.670;2023-06-22T10:05:29;28.20;86.70
27559;DHT22;15002;52.028;5.670;2023-06-22T10:07:54;28.20;86.40
27559;DHT22;15002;52.028;5.670;2023-06-22T10:10:20;28.10;87.10
27559;DHT22;15002;52.028;5.670;2023-06-22T10:12:47;27.80;87.70
27559;DHT22;15002;52.028;5.670;2023-06-22T10:15:14;28.00;87.20
27559;DHT22;15002;52.028;5.670;2023-06-22T10:17:39;27.80;87.50
27559;DHT22;15002;52.028;5.670;2023-06-22T10:20:08;27.50;88.30
27559;DHT22;15002;52.028;5.670;2023-06-22T10:22:43;27.60;88.50
27559;DHT22;15002;52.028;5.670;2023-06-22T10:25:09;27.70;88.90
27559;DHT22;15002;52.028;5.670;2023-06-22T10:27:35;27.50;89.60
27559;DHT22;15002;52.028;5.670;2023-06-22T10:30:00;27.20;90.30
27559;DHT22;15002;52.028;5.670;2023-06-22T10:32:26;27.10;90.90
27559;DHT22;15002;52.028;5.670;2023-06-22T10:34:54;27.30;90.70
27559;DHT22;15002;52.028;5.670;2023-06-22T10:37:19;27.30;90.50
27559;DHT22;15002;52.028;5.670;2023-06-22T10:39:45;27.40;90.60
27559;DHT22;15002;52.028;5.670;2023-06-22T10:42:12;27.40;90.40
27559;DHT22;15002;52.028;5.670;2023-06-22T10:44:37;27.50;90.30
27559;DHT22;15002;52.028;5.670;2023-06-22T10:47:04;27.20;90.80
27559;DHT22;15002;52.028;5.670;2023-06-22T10:49:30;27.20;91.10
27559;DHT22;15002;52.028;5.670;2023-06-22T10:51:56;27.30;91.00
27559;DHT22;15002;52.028;5.670;2023-06-22T10:54:21;27.50;91.20
27559;DHT22;15002;52.028;5.670;2023-06-22T10:56:47;27.50;91.50
27559;DHT22;15002;52.028;5.670;2023-06-22T10:59:12;27.60;91.40
27559;DHT22;15002;52.028;5.670;2023-06-22T11:01:38;27.50;91.40
27559;DHT22;15002;52.028;5.670;2023-06-22T11:04:04;27.60;91.40
27559;DHT22;15002;52.028;5.670;2023-06-22T11:06:30;27.50;91.90
27559;DHT22;15002;52.028;5.670;2023-06-22T11:08:55;27.50;91.50
27559;DHT22;15002;52.028;5.670;2023-06-22T11:11:21;27.70;91.50
27559;DHT22;15002;52.028;5.670;2023-06-22T11:13:47;27.70;91.60
27559;DHT22;15002;52.028;5.670;2023-06-22T11:16:12;27.80;91.80
27559;DHT22;15002;52.028;5.670;2023-06-22T11:18:38;28.00;91.30
27559;DHT22;15002;52.028;5.670;2023-06-22T11:21:03;28.00;91.10
27559;DHT22;15002;52.028;5.670;2023-06-22T11:23:29;28.00;91.30
27559;DHT22;15002;52.028;5.670;2023-06-22T11:25:55;27.80;92.10
27559;DHT22;15002;52.028;5.670;2023-06-22T11:28:21;27.90;92.30
27559;DHT22;15002;52.028;5.670;2023-06-22T11:30:46;27.90;92.20
27559;DHT22;15002;52.028;5.670;2023-06-22T11:33:12;27.80;92.30
27559;DHT22;15002;52.028;5.670;2023-06-22T11:35:37;27.70;92.60
27559;DHT22;15002;52.028;5.670;2023-06-22T11:38:03;27.80;92.60
27559;DHT22;15002;52.028;5.670;2023-06-22T11:40:30;27.50;93.30
27559;DHT22;15002;52.028;5.670;2023-06-22T11:42:56;27.60;93.60
27559;DHT22;15002;52.028;5.670;2023-06-22T11:45:21;27.50;94.00
27559;DHT22;15002;52.028;5.670;2023-06-22T11:47:47;27.60;93.80
27559;DHT22;15002;52.028;5.670;2023-06-22T11:50:13;27.70;94.30
27559;DHT22;15002;52.028;5.670;2023-06-22T11:52:39;27.80;94.30
27559;DHT22;15002;52.028;5.670;2023-06-22T11:55:05;27.80;94.40
27559;DHT22;15002;52.028;5.670;2023-06-22T11:57:38;27.90;95.30
27559;DHT22;15002;52.028;5.670;2023-06-22T12:00:17;27.90;95.00
27559;DHT22;15002;52.028;5.670;2023-06-22T12:02:43;27.80;96.00
27559;DHT22;15002;52.028;5.670;2023-06-22T12:05:10;27.80;95.40
27559;DHT22;15002;52.028;5.670;2023-06-22T12:07:36;27.60;95.90
27559;DHT22;15002;52.028;5.670;2023-06-22T12:10:03;27.50;96.10
27559;DHT22;15002;52.028;5.670;2023-06-22T12:12:29;27.40;96.60
27559;DHT22;15002;52.028;5.670;2023-06-22T12:14:55;27.70;96.60
27559;DHT22;15002;52.028;5.670;2023-06-22T12:17:20;27.60;96.70
27559;DHT22;15002;52.028;5.670;2023-06-22T12:19:46;27.40;97.50
27559;DHT22;15002;52.028;5.670;2023-06-22T12:22:12;27.50;97.40
27559;DHT22;15002;52.028;5.670;2023-06-22T12:24:37;27.30;98.80
27559;DHT22;15002;52.028;5.670;2023-06-22T12:27:03;27.10;99.60
27559;DHT22;15002;52.028;5.670;2023-06-22T12:29:29;27.10;99.90
27559;DHT22;15002;52.028;5.670;2023-06-22T12:31:55;27.20;99.90
27559;DHT22;15002;52.028;5.670;2023-06-22T12:34:20;27.50;99.90
27559;DHT22;15002;52.028;5.670;2023-06-22T12:36:46;27.40;99.90
27559;DHT22;15002;52.028;5.670;2023-06-22T12:39:14;27.20;99.90
27559;DHT22;15002;52.028;5.670;2023-06-22T12:41:39;26.90;99.90
27559;DHT22;15002;52.028;5.670;2023-06-22T12:44:05;26.70;99.90
27559;DHT22;15002;52.028;5.670;2023-06-22T12:46:31;26.60;99.90
27559;DHT22;15002;52.028;5.670;2023-06-22T12:49:03;26.70;99.90
27559;DHT22;15002;52.028;5.670;2023-06-22T12:51:29;26.80;99.90
27559;DHT22;15002;52.028;5.670;2023-06-22T12:53:55;26.80;99.90
27559;DHT22;15002;52.028;5.670;2023-06-22T12:56:20;26.60;99.90
27559;DHT22;15002;52.028;5.670;2023-06-22T12:58:46;26.60;99.90
27559;DHT22;15002;52.028;5.670;2023-06-22T13:01:12;26.80;99.90
27559;DHT22;15002;52.028;5.670;2023-06-22T13:03:38;26.60;99.90
27559;DHT22;15002;52.028;5.670;2023-06-22T13:06:03;26.30;99.90
27559;DHT22;15002;52.028;5.670;2023-06-22T13:08:30;26.10;99.90
27559;DHT22;15002;52.028;5.670;2023-06-22T13:10:55;25.60;99.90
27559;DHT22;15002;52.028;5.670;2023-06-22T13:13:26;25.40;99.90
27559;DHT22;15002;52.028;5.670;2023-06-22T13:15:55;25.60;99.90
27559;DHT22;15002;52.028;5.670;2023-06-22T13:18:20;25.40;99.90
27559;DHT22;15002;52.028;5.670;2023-06-22T13:20:46;25.50;99.90
27559;DHT22;15002;52.028;5.670;2023-06-22T13:23:12;25.20;99.90
27559;DHT22;15002;52.028;5.670;2023-06-22T13:25:38;25.10;99.90
27559;DHT22;15002;52.028;5.670;2023-06-22T13:28:03;25.20;99.90
27559;DHT22;15002;52.028;5.670;2023-06-22T13:30:29;25.20;99.90
27559;DHT22;15002;52.028;5.670;2023-06-22T13:32:56;24.90;99.90
27559;DHT22;15002;52.028;5.670;2023-06-22T13:35:22;24.80;99.90
27559;DHT22;15002;52.028;5.670;2023-06-22T13:37:48;25.00;99.90
27559;DHT22;15002;52.028;5.670;2023-06-22T13:40:13;25.30;99.90
27559;DHT22;15002;52.028;5.670;2023-06-22T13:42:40;25.40;99.90
27559;DHT22;15002;52.028;5.670;2023-06-22T13:45:07;25.20;99.90
27559;DHT22;15002;52.028;5.670;2023-06-22T13:47:32;24.90;99.90
27559;DHT22;15002;52.028;5.670;2023-06-22T13:49:59;24.90;99.90
27559;DHT22;15002;52.028;5.670;2023-06-22T13:52:25;24.80;99.90
27559;DHT22;15002;52.028;5.670;2023-06-22T13:54:50;25.30;99.90
27559;DHT22;15002;52.028;5.670;2023-06-22T13:57:16;25.20;99.90
27559;DHT22;15002;52.028;5.670;2023-06-22T13:59:42;25.00;99.90
27559;DHT22;15002;52.028;5.670;2023-06-22T14:02:08;24.90;99.90
27559;DHT22;15002;52.028;5.670;2023-06-22T14:04:33;24.70;99.90
27559;DHT22;15002;52.028;5.670;2023-06-22T14:06:59;24.70;99.90
27559;DHT22;15002;52.028;5.670;2023-06-22T14:09:24;24.50;99.90
27559;DHT22;15002;52.028;5.670;2023-06-22T14:11:50;24.70;99.90
27559;DHT22;15002;52.028;5.670;2023-06-22T14:14:16;24.80;99.90
27559;DHT22;15002;52.028;5.670;2023-06-22T14:16:42;24.60;99.90
27559;DHT22;15002;52.028;5.670;2023-06-22T14:19:07;24.30;99.90
27559;DHT22;15002;52.028;5.670;2023-06-22T14:21:33;24.10;99.90
27559;DHT22;15002;52.028;5.670;2023-06-22T14:23:58;24.50;99.90
27559;DHT22;15002;52.028;5.670;2023-06-22T14:26:24;24.40;99.90
27559;DHT22;15002;52.028;5.670;2023-06-22T14:28:50;24.30;99.90
27559;DHT22;15002;52.028;5.670;2023-06-22T14:31:16;24.40;99.90
27559;DHT22;15002;52.028;5.670;2023-06-22T14:33:46;24.50;99.90
27559;DHT22;15002;52.028;5.670;2023-06-22T14:36:11;24.20;99.90
27559;DHT22;15002;52.028;5.670;2023-06-22T14:38:37;24.10;99.90
27559;DHT22;15002;52.028;5.670;2023-06-22T14:41:03;24.10;99.90
27559;DHT22;15002;52.028;5.670;2023-06-22T14:43:28;24.00;99.90
27559;DHT22;15002;52.028;5.670;2023-06-22T14:45:54;23.90;99.90
27559;DHT22;15002;52.028;5.670;2023-06-22T14:48:20;23.70;99.90
27559;DHT22;15002;52.028;5.670;2023-06-22T14:50:45;23.50;99.90
27559;DHT22;15002;52.028;5.670;2023-06-22T14:53:11;23.60;99.90
27559;DHT22;15002;52.028;5.670;2023-06-22T14:55:37;23.60;99.90
27559;DHT22;15002;52.028;5.670;2023-06-22T14:58:02;23.50;99.90
27559;DHT22;15002;52.028;5.670;2023-06-22T15:00:28;23.60;99.90
27559;DHT22;15002;52.028;5.670;2023-06-22T15:02:53;23.60;99.90
27559;DHT22;15002;52.028;5.670;2023-06-22T15:05:19;23.90;99.90
27559;DHT22;15002;52.028;5.670;2023-06-22T15:07:45;23.60;99.90
27559;DHT22;15002;52.028;5.670;2023-06-22T15:10:10;23.50;99.90
27559;DHT22;15002;52.028;5.670;2023-06-22T15:12:36;23.70;99.90
27559;DHT22;15002;52.028;5.670;2023-06-22T15:15:02;23.60;99.90
27559;DHT22;15002;52.028;5.670;2023-06-22T15:17:28;23.70;99.90
27559;DHT22;15002;52.028;5.670;2023-06-22T15:19:57;23.50;99.90
27559;DHT22;15002;52.028;5.670;2023-06-22T15:22:23;23.60;99.90
27559;DHT22;15002;52.028;5.670;2023-06-22T15:24:49;23.60;99.90
27559;DHT22;15002;52.028;5.670;2023-06-22T15:27:14;23.70;99.90
27559;DHT22;15002;52.028;5.670;2023-06-22T15:29:40;23.60;99.90
27559;DHT22;15002;52.028;5.670;2023-06-22T15:32:07;23.50;99.90
27559;DHT22;15002;52.028;5.670;2023-06-22T15:34:33;23.50;99.90
27559;DHT22;15002;52.028;5.670;2023-06-22T15:36:59;23.60;99.90
27559;DHT22;15002;52.028;5.670;2023-06-22T15:39:25;23.50;99.90